sensor_id;sensor_type;location;lat;lon;timestamp;pressure;altitude;pressure_sealevel;temperature;humidity
19795;BME280;10057;59.402;17.866;2023-04-04T00:00:21;102818.69;;;-1.32;48.32
19795;BME280;10057;59.402;17.866;2023-04-04T00:02:48;102813.25;;;-1.37;48.92
19795;BME280;10057;59.402;17.866;2023-04-04T00:05:15;102816.78;;;-1.36;48.38
19795;BME280;10057;59.402;17.866;2023-04-04T00:07:45;102809.59;;;-1.42;48.71
19795;BME280;10057;59.402;17.866;2023-04-04T00:10:12;102812.94;;;-1.45;48.62
19795;BME280;10057;59.402;17.866;2023-04-04T00:12:39;102817.25;;;-1.45;48.81
19795;BME280;10057;59.402;17.866;2023-04-04T00:15:07;102803.41;;;-1.44;49.12
19795;BME280;10057;59.402;17.866;2023-04-04T00:17:33;102805.13;;;-1.45;48.84
19795;BME280;10057;59.402;17.866;2023-04-04T00:20:01;102806.00;;;-1.44;48.54
19795;BME280;10057;59.402;17.866;2023-04-04T00:22:29;102801.72;;;-1.44;49.26
19795;BME280;10057;59.402;17.866;2023-04-04T00:24:57;102791.97;;;-1.48;49.16
19795;BME280;10057;59.402;17.866;2023-04-04T00:27:24;102790.88;;;-1.53;48.96
19795;BME280;10057;59.402;17.866;2023-04-04T00:29:51;102786.34;;;-1.57;49.37
19795;BME280;10057;59.402;17.866;2023-04-04T00:32:18;102791.28;;;-1.63;48.94
19795;BME280;10057;59.402;17.866;2023-04-04T00:34:45;102787.41;;;-1.71;49.63
19795;BME280;10057;59.402;17.866;2023-04-04T00:37:11;102795.13;;;-1.74;49.73
19795;BME280;10057;59.402;17.866;2023-04-04T00:39:38;102785.22;;;-1.81;49.59
19795;BME280;10057;59.402;17.866;2023-04-04T00:42:05;102786.00;;;-1.84;49.79
19795;BME280;10057;59.402;17.866;2023-04-04T00:44:32;102782.22;;;-1.91;49.83
19795;BME280;10057;59.402;17.866;2023-04-04T00:47:03;102775.16;;;-1.93;49.88
19795;BME280;10057;59.402;17.866;2023-04-04T00:49:29;102772.59;;;-1.92;49.67
19795;BME280;10057;59.402;17.866;2023-04-04T00:51:56;102766.66;;;-1.89;50.05
19795;BME280;10057;59.402;17.866;2023-04-04T00:54:23;102772.22;;;-1.81;49.96
19795;BME280;10057;59.402;17.866;2023-04-04T00:56:50;102770.72;;;-1.76;50.11
19795;BME280;10057;59.402;17.866;2023-04-04T00:59:22;102763.06;;;-1.73;49.75
19795;BME280;10057;59.402;17.866;2023-04-04T01:01:49;102757.00;;;-1.72;49.85
19795;BME280;10057;59.402;17.866;2023-04-04T01:04:16;102757.91;;;-1.72;49.62
19795;BME280;10057;59.402;17.866;2023-04-04T01:06:43;102761.47;;;-1.70;50.03
19795;BME280;10057;59.402;17.866;2023-04-04T01:09:11;102760.66;;;-1.69;50.09
19795;BME280;10057;59.402;17.866;2023-04-04T01:11:38;102758.88;;;-1.70;49.61
19795;BME280;10057;59.402;17.866;2023-04-04T01:14:05;102759.09;;;-1.84;49.54
19795;BME280;10057;59.402;17.866;2023-04-04T01:16:32;102763.28;;;-2.06;50.30
19795;BME280;10057;59.402;17.866;2023-04-04T01:18:58;102760.19;;;-2.17;50.02
19795;BME280;10057;59.402;17.866;2023-04-04T01:21:26;102764.50;;;-2.17;50.57
19795;BME280;10057;59.402;17.866;2023-04-04T01:24:01;102763.50;;;-2.19;49.96
19795;BME280;10057;59.402;17.866;2023-04-04T01:26:30;102762.47;;;-2.23;50.52
19795;BME280;10057;59.402;17.866;2023-04-04T01:28:58;102765.03;;;-2.24;50.52
19795;BME280;10057;59.402;17.866;2023-04-04T01:31:34;102758.94;;;-2.25;50.70
19795;BME280;10057;59.402;17.866;2023-04-04T01:34:10;102757.22;;;-2.24;51.21
19795;BME280;10057;59.402;17.866;2023-04-04T01:37:02;102748.44;;;-2.26;50.98
19795;BME280;10057;59.402;17.866;2023-04-04T01:39:55;102753.00;;;-2.22;50.55
19795;BME280;10057;59.402;17.866;2023-04-04T01:42:25;102754.91;;;-2.18;50.85
19795;BME280;10057;59.402;17.866;2023-04-04T01:44:54;102754.09;;;-2.17;50.68
19795;BME280;10057;59.402;17.866;2023-04-04T01:47:22;102764.34;;;-2.20;50.42
19795;BME280;10057;59.402;17.866;2023-04-04T01:49:50;102760.34;;;-2.31;50.72
19795;BME280;10057;59.402;17.866;2023-04-04T01:52:19;102759.06;;;-2.40;51.07
19795;BME280;10057;59.402;17.866;2023-04-04T01:54:46;102752.78;;;-2.45;51.44
19795;BME280;10057;59.402;17.866;2023-04-04T01:57:12;102748.31;;;-2.47;51.32
19795;BME280;10057;59.402;17.866;2023-04-04T01:59:39;102748.47;;;-2.44;51.06
19795;BME280;10057;59.402;17.866;2023-04-04T02:02:06;102755.75;;;-2.37;51.73
19795;BME280;10057;59.402;17.866;2023-04-04T02:04:33;102747.25;;;-2.33;51.31
19795;BME280;10057;59.402;17.866;2023-04-04T02:07:00;102741.31;;;-2.30;51.11
19795;BME280;10057;59.402;17.866;2023-04-04T02:09:26;102739.84;;;-2.25;51.29
19795;BME280;10057;59.402;17.866;2023-04-04T02:11:53;102737.44;;;-2.21;51.53
19795;BME280;10057;59.402;17.866;2023-04-04T02:14:21;102729.69;;;-2.19;51.23
19795;BME280;10057;59.402;17.866;2023-04-04T02:16:48;102725.88;;;-2.27;51.45
19795;BME280;10057;59.402;17.866;2023-04-04T02:19:15;102729.84;;;-2.35;51.32
19795;BME280;10057;59.402;17.866;2023-04-04T02:21:42;102732.28;;;-2.39;51.52
19795;BME280;10057;59.402;17.866;2023-04-04T02:24:08;102734.72;;;-2.42;51.36
19795;BME280;10057;59.402;17.866;2023-04-04T02:26:35;102734.63;;;-2.43;51.51
19795;BME280;10057;59.402;17.866;2023-04-04T02:29:02;102733.03;;;-2.41;51.39
19795;BME280;10057;59.402;17.866;2023-04-04T02:31:29;102726.25;;;-2.38;51.82
19795;BME280;10057;59.402;17.866;2023-04-04T02:33:56;102733.16;;;-2.38;51.33
19795;BME280;10057;59.402;17.866;2023-04-04T02:36:23;102728.16;;;-2.53;51.78
19795;BME280;10057;59.402;17.866;2023-04-04T02:38:50;102733.72;;;-2.63;51.70
19795;BME280;10057;59.402;17.866;2023-04-04T02:41:17;102731.84;;;-2.66;51.73
19795;BME280;10057;59.402;17.866;2023-04-04T02:43:43;102734.28;;;-2.69;51.82
19795;BME280;10057;59.402;17.866;2023-04-04T02:46:10;102727.38;;;-2.68;52.44
19795;BME280;10057;59.402;17.866;2023-04-04T02:48:47;102731.03;;;-2.65;52.12
19795;BME280;10057;59.402;17.866;2023-04-04T02:51:19;102732.53;;;-2.70;51.79
19795;BME280;10057;59.402;17.866;2023-04-04T02:53:46;102725.47;;;-2.72;52.30
19795;BME280;10057;59.402;17.866;2023-04-04T02:56:13;102725.31;;;-2.75;52.17
19795;BME280;10057;59.402;17.866;2023-04-04T02:58:40;102721.97;;;-2.73;52.15
19795;BME280;10057;59.402;17.866;2023-04-04T03:01:08;102722.78;;;-2.74;52.22
19795;BME280;10057;59.402;17.866;2023-04-04T03:03:34;102724.78;;;-2.68;52.50
19795;BME280;10057;59.402;17.866;2023-04-04T03:06:02;102727.38;;;-2.68;52.53
19795;BME280;10057;59.402;17.866;2023-04-04T03:08:28;102725.31;;;-2.75;52.16
19795;BME280;10057;59.402;17.866;2023-04-04T03:10:55;102725.69;;;-2.86;52.35
19795;BME280;10057;59.402;17.866;2023-04-04T03:13:22;102721.66;;;-2.97;52.40
19795;BME280;10057;59.402;17.866;2023-04-04T03:15:49;102725.41;;;-3.08;52.55
19795;BME280;10057;59.402;17.866;2023-04-04T03:18:16;102718.06;;;-3.17;52.94
19795;BME280;10057;59.402;17.866;2023-04-04T03:20:42;102710.94;;;-3.21;52.44
19795;BME280;10057;59.402;17.866;2023-04-04T03:23:09;102712.50;;;-3.24;52.81
19795;BME280;10057;59.402;17.866;2023-04-04T03:25:36;102712.78;;;-3.18;53.17
19795;BME280;10057;59.402;17.866;2023-04-04T03:28:09;102711.47;;;-3.10;53.23
19795;BME280;10057;59.402;17.866;2023-04-04T03:30:36;102701.97;;;-3.10;52.99
19795;BME280;10057;59.402;17.866;2023-04-04T03:33:04;102707.59;;;-3.18;52.93
19795;BME280;10057;59.402;17.866;2023-04-04T03:35:39;102703.16;;;-3.21;53.26
19795;BME280;10057;59.402;17.866;2023-04-04T03:38:07;102709.41;;;-3.17;53.48
19795;BME280;10057;59.402;17.866;2023-04-04T03:40:35;102701.09;;;-3.10;52.95
19795;BME280;10057;59.402;17.866;2023-04-04T03:43:02;102697.81;;;-3.06;53.57
19795;BME280;10057;59.402;17.866;2023-04-04T03:45:28;102695.28;;;-3.04;53.17
19795;BME280;10057;59.402;17.866;2023-04-04T03:47:55;102705.69;;;-3.04;53.15
19795;BME280;10057;59.402;17.866;2023-04-04T03:50:22;102688.31;;;-3.05;53.19
19795;BME280;10057;59.402;17.866;2023-04-04T03:52:49;102703.16;;;-3.03;53.08
19795;BME280;10057;59.402;17.866;2023-04-04T03:55:16;102702.19;;;-3.05;53.10
19795;BME280;10057;59.402;17.866;2023-04-04T03:57:43;102700.41;;;-3.06;53.42
19795;BME280;10057;59.402;17.866;2023-04-04T04:00:10;102694.50;;;-3.03;53.16
19795;BME280;10057;59.402;17.866;2023-04-04T04:02:37;102687.91;;;-2.97;53.37
19795;BME280;10057;59.402;17.866;2023-04-04T04:05:04;102689.88;;;-2.91;53.85
19795;BME280;10057;59.402;17.866;2023-04-04T04:07:31;102691.91;;;-2.86;53.32
19795;BME280;10057;59.402;17.866;2023-04-04T04:09:58;102690.41;;;-2.80;53.11
19795;BME280;10057;59.402;17.866;2023-04-04T04:12:25;102685.09;;;-2.83;52.99
19795;BME280;10057;59.402;17.866;2023-04-04T04:14:51;102679.13;;;-2.99;53.58
19795;BME280;10057;59.402;17.866;2023-04-04T04:17:18;102673.03;;;-3.17;53.71
19795;BME280;10057;59.402;17.866;2023-04-04T04:19:45;102676.78;;;-3.28;53.78
19795;BME280;10057;59.402;17.866;2023-04-04T04:22:12;102672.69;;;-3.41;54.03
19795;BME280;10057;59.402;17.866;2023-04-04T04:24:38;102668.09;;;-3.47;54.32
19795;BME280;10057;59.402;17.866;2023-04-04T04:27:05;102675.38;;;-3.40;54.60
19795;BME280;10057;59.402;17.866;2023-04-04T04:29:32;102668.72;;;-3.35;54.45
19795;BME280;10057;59.402;17.866;2023-04-04T04:31:59;102665.28;;;-3.34;54.65
19795;BME280;10057;59.402;17.866;2023-04-04T04:34:26;102659.59;;;-3.26;54.84
19795;BME280;10057;59.402;17.866;2023-04-04T04:36:53;102662.72;;;-3.16;55.09
19795;BME280;10057;59.402;17.866;2023-04-04T04:39:20;102662.44;;;-3.04;54.91
19795;BME280;10057;59.402;17.866;2023-04-04T04:41:47;102658.81;;;-2.90;55.04
19795;BME280;10057;59.402;17.866;2023-04-04T04:44:14;102659.38;;;-2.77;54.91
19795;BME280;10057;59.402;17.866;2023-04-04T04:46:40;102662.56;;;-2.65;54.56
19795;BME280;10057;59.402;17.866;2023-04-04T04:49:07;102656.97;;;-2.55;54.43
19795;BME280;10057;59.402;17.866;2023-04-04T04:51:34;102655.63;;;-2.47;54.24
19795;BME280;10057;59.402;17.866;2023-04-04T04:54:00;102664.69;;;-2.39;54.32
19795;BME280;10057;59.402;17.866;2023-04-04T04:56:27;102664.81;;;-2.35;54.37
19795;BME280;10057;59.402;17.866;2023-04-04T04:58:54;102658.13;;;-2.30;54.11
19795;BME280;10057;59.402;17.866;2023-04-04T05:01:21;102660.03;;;-2.26;54.29
19795;BME280;10057;59.402;17.866;2023-04-04T05:03:48;102665.50;;;-2.20;55.25
19795;BME280;10057;59.402;17.866;2023-04-04T05:06:18;102660.41;;;-2.19;54.87
19795;BME280;10057;59.402;17.866;2023-04-04T05:08:44;102666.63;;;-2.15;54.85
19795;BME280;10057;59.402;17.866;2023-04-04T05:11:11;102666.81;;;-2.10;55.14
19795;BME280;10057;59.402;17.866;2023-04-04T05:13:38;102675.81;;;-2.04;55.38
19795;BME280;10057;59.402;17.866;2023-04-04T05:16:05;102661.28;;;-1.99;54.71
19795;BME280;10057;59.402;17.866;2023-04-04T05:18:32;102663.06;;;-1.98;55.07
19795;BME280;10057;59.402;17.866;2023-04-04T05:20:59;102661.56;;;-1.93;55.42
19795;BME280;10057;59.402;17.866;2023-04-04T05:23:25;102668.00;;;-1.84;55.70
19795;BME280;10057;59.402;17.866;2023-04-04T05:25:52;102655.31;;;-1.77;55.57
19795;BME280;10057;59.402;17.866;2023-04-04T05:28:19;102654.75;;;-1.70;54.91
19795;BME280;10057;59.402;17.866;2023-04-04T05:30:46;102655.09;;;-1.62;55.17
19795;BME280;10057;59.402;17.866;2023-04-04T05:33:13;102646.66;;;-1.56;55.45
19795;BME280;10057;59.402;17.866;2023-04-04T05:35:40;102652.88;;;-1.53;55.39
19795;BME280;10057;59.402;17.866;2023-04-04T05:38:07;102653.03;;;-1.50;55.19
19795;BME280;10057;59.402;17.866;2023-04-04T05:40:34;102655.88;;;-1.44;55.45
19795;BME280;10057;59.402;17.866;2023-04-04T05:43:00;102655.19;;;-1.39;55.72
19795;BME280;10057;59.402;17.866;2023-04-04T05:45:30;102649.28;;;-1.35;55.29
19795;BME280;10057;59.402;17.866;2023-04-04T05:47:57;102657.09;;;-1.35;55.60
19795;BME280;10057;59.402;17.866;2023-04-04T05:50:24;102646.81;;;-1.32;55.57
19795;BME280;10057;59.402;17.866;2023-04-04T05:52:53;102647.06;;;-1.26;55.75
19795;BME280;10057;59.402;17.866;2023-04-04T05:55:20;102643.81;;;-1.21;55.98
19795;BME280;10057;59.402;17.866;2023-04-04T05:57:50;102642.34;;;-1.14;56.21
19795;BME280;10057;59.402;17.866;2023-04-04T06:00:18;102641.50;;;-1.13;56.15
19795;BME280;10057;59.402;17.866;2023-04-04T06:02:45;102642.59;;;-1.08;55.65
19795;BME280;10057;59.402;17.866;2023-04-04T06:05:12;102644.56;;;-1.02;55.99
19795;BME280;10057;59.402;17.866;2023-04-04T06:07:39;102642.09;;;-0.99;55.61
19795;BME280;10057;59.402;17.866;2023-04-04T06:10:07;102641.50;;;-0.92;56.12
19795;BME280;10057;59.402;17.866;2023-04-04T06:12:34;102636.53;;;-0.86;56.04
19795;BME280;10057;59.402;17.866;2023-04-04T06:15:00;102631.50;;;-0.81;56.07
19795;BME280;10057;59.402;17.866;2023-04-04T06:17:27;102641.69;;;-0.87;56.10
19795;BME280;10057;59.402;17.866;2023-04-04T06:19:54;102631.97;;;-0.91;56.17
19795;BME280;10057;59.402;17.866;2023-04-04T06:22:21;102637.91;;;-0.96;56.32
19795;BME280;10057;59.402;17.866;2023-04-04T06:24:48;102637.91;;;-0.96;56.63
19795;BME280;10057;59.402;17.866;2023-04-04T06:27:14;102649.38;;;-0.90;56.76
19795;BME280;10057;59.402;17.866;2023-04-04T06:29:41;102640.13;;;-0.82;56.53
19795;BME280;10057;59.402;17.866;2023-04-04T06:32:09;102635.28;;;-0.73;56.88
19795;BME280;10057;59.402;17.866;2023-04-04T06:34:36;102637.31;;;-0.66;56.75
19795;BME280;10057;59.402;17.866;2023-04-04T06:37:03;102630.63;;;-0.59;56.50
19795;BME280;10057;59.402;17.866;2023-04-04T06:39:30;102632.59;;;-0.54;56.45
19795;BME280;10057;59.402;17.866;2023-04-04T06:41:57;102637.13;;;-0.48;56.50
19795;BME280;10057;59.402;17.866;2023-04-04T06:44:23;102639.94;;;-0.43;56.56
19795;BME280;10057;59.402;17.866;2023-04-04T06:46:50;102643.59;;;-0.38;56.85
19795;BME280;10057;59.402;17.866;2023-04-04T06:49:17;102645.59;;;-0.31;56.59
19795;BME280;10057;59.402;17.866;2023-04-04T06:51:44;102648.44;;;-0.25;56.66
19795;BME280;10057;59.402;17.866;2023-04-04T06:54:11;102647.81;;;-0.18;56.89
19795;BME280;10057;59.402;17.866;2023-04-04T06:56:37;102650.63;;;-0.13;56.83
19795;BME280;10057;59.402;17.866;2023-04-04T06:59:04;102656.97;;;-0.07;56.71
19795;BME280;10057;59.402;17.866;2023-04-04T07:01:34;102644.00;;;-0.04;56.77
19795;BME280;10057;59.402;17.866;2023-04-04T07:04:01;102652.06;;;0.03;56.85
19795;BME280;10057;59.402;17.866;2023-04-04T07:06:28;102641.84;;;0.09;56.50
19795;BME280;10057;59.402;17.866;2023-04-04T07:08:55;102640.31;;;0.14;56.45
19795;BME280;10057;59.402;17.866;2023-04-04T07:11:24;102645.69;;;0.18;56.67
19795;BME280;10057;59.402;17.866;2023-04-04T07:13:52;102641.38;;;0.20;56.50
19795;BME280;10057;59.402;17.866;2023-04-04T07:16:19;102643.19;;;0.21;56.74
19795;BME280;10057;59.402;17.866;2023-04-04T07:18:46;102637.97;;;0.21;56.81
19795;BME280;10057;59.402;17.866;2023-04-04T07:21:12;102646.72;;;0.23;56.79
19795;BME280;10057;59.402;17.866;2023-04-04T07:23:39;102639.88;;;0.27;57.02
19795;BME280;10057;59.402;17.866;2023-04-04T07:26:06;102647.00;;;0.31;56.78
19795;BME280;10057;59.402;17.866;2023-04-04T07:28:32;102639.28;;;0.34;56.80
19795;BME280;10057;59.402;17.866;2023-04-04T07:30:59;102636.81;;;0.39;56.92
19795;BME280;10057;59.402;17.866;2023-04-04T07:33:29;102640.44;;;0.42;56.67
19795;BME280;10057;59.402;17.866;2023-04-04T07:35:56;102633.59;;;0.46;57.12
19795;BME280;10057;59.402;17.866;2023-04-04T07:38:26;102630.31;;;0.52;56.92
19795;BME280;10057;59.402;17.866;2023-04-04T07:40:53;102636.66;;;0.60;57.01
19795;BME280;10057;59.402;17.866;2023-04-04T07:43:21;102638.66;;;0.67;56.78
19795;BME280;10057;59.402;17.866;2023-04-04T07:45:48;102634.50;;;0.74;56.66
19795;BME280;10057;59.402;17.866;2023-04-04T07:48:15;102634.66;;;0.78;56.86
19795;BME280;10057;59.402;17.866;2023-04-04T07:50:41;102639.25;;;0.85;56.82
19795;BME280;10057;59.402;17.866;2023-04-04T07:53:08;102633.31;;;0.89;56.83
19795;BME280;10057;59.402;17.866;2023-04-04T07:55:35;102633.31;;;0.89;56.76
19795;BME280;10057;59.402;17.866;2023-04-04T07:58:02;102635.91;;;0.89;56.71
19795;BME280;10057;59.402;17.866;2023-04-04T08:00:28;102638.66;;;0.94;56.76
19795;BME280;10057;59.402;17.866;2023-04-04T08:02:55;102638.88;;;1.00;57.10
19795;BME280;10057;59.402;17.866;2023-04-04T08:05:24;102640.78;;;1.06;57.14
19795;BME280;10057;59.402;17.866;2023-04-04T08:07:51;102637.56;;;1.13;57.27
19795;BME280;10057;59.402;17.866;2023-04-04T08:10:18;102642.16;;;1.22;56.99
19795;BME280;10057;59.402;17.866;2023-04-04T08:12:47;102645.00;;;1.29;56.76
19795;BME280;10057;59.402;17.866;2023-04-04T08:15:14;102653.16;;;1.38;56.65
19795;BME280;10057;59.402;17.866;2023-04-04T08:17:41;102646.31;;;1.43;56.92
19795;BME280;10057;59.402;17.866;2023-04-04T08:20:11;102649.88;;;1.46;56.64
19795;BME280;10057;59.402;17.866;2023-04-04T08:22:39;102646.41;;;1.47;56.79
19795;BME280;10057;59.402;17.866;2023-04-04T08:25:06;102646.50;;;1.50;56.65
19795;BME280;10057;59.402;17.866;2023-04-04T08:27:34;102661.47;;;1.54;56.44
19795;BME280;10057;59.402;17.866;2023-04-04T08:30:00;102651.16;;;1.58;56.66
19795;BME280;10057;59.402;17.866;2023-04-04T08:32:29;102649.59;;;1.65;56.73
19795;BME280;10057;59.402;17.866;2023-04-04T08:34:57;102653.22;;;1.70;56.50
19795;BME280;10057;59.402;17.866;2023-04-04T08:37:24;102661.28;;;1.76;56.10
19795;BME280;10057;59.402;17.866;2023-04-04T08:39:51;102658.78;;;1.81;56.47
19795;BME280;10057;59.402;17.866;2023-04-04T08:42:18;102663.31;;;1.86;56.57
19795;BME280;10057;59.402;17.866;2023-04-04T08:44:49;102653.88;;;1.92;56.53
19795;BME280;10057;59.402;17.866;2023-04-04T08:47:18;102657.50;;;1.97;56.07
19795;BME280;10057;59.402;17.866;2023-04-04T08:49:47;102653.22;;;1.99;56.02
19795;BME280;10057;59.402;17.866;2023-04-04T08:52:17;102648.97;;;2.04;56.13
19795;BME280;10057;59.402;17.866;2023-04-04T08:54:46;102649.19;;;2.11;55.69
19795;BME280;10057;59.402;17.866;2023-04-04T08:57:14;102644.97;;;2.17;55.89
19795;BME280;10057;59.402;17.866;2023-04-04T08:59:41;102643.41;;;2.23;56.02
19795;BME280;10057;59.402;17.866;2023-04-04T09:04:34;102642.94;;;2.38;55.50
19795;BME280;10057;59.402;17.866;2023-04-04T09:07:02;102645.75;;;2.46;55.30
19795;BME280;10057;59.402;17.866;2023-04-04T09:09:30;102642.44;;;2.53;55.25
19795;BME280;10057;59.402;17.866;2023-04-04T09:12:02;102636.47;;;2.58;55.33
19795;BME280;10057;59.402;17.866;2023-04-04T09:14:29;102634.88;;;2.64;55.29
19795;BME280;10057;59.402;17.866;2023-04-04T09:16:56;102634.13;;;2.69;55.12
19795;BME280;10057;59.402;17.866;2023-04-04T09:19:23;102637.78;;;2.74;55.14
19795;BME280;10057;59.402;17.866;2023-04-04T09:21:51;102637.97;;;2.83;54.94
19795;BME280;10057;59.402;17.866;2023-04-04T09:24:18;102626.03;;;2.95;54.98
19795;BME280;10057;59.402;17.866;2023-04-04T09:26:46;102627.09;;;3.03;54.77
19795;BME280;10057;59.402;17.866;2023-04-04T09:29:16;102625.69;;;3.17;54.52
19795;BME280;10057;59.402;17.866;2023-04-04T09:31:44;102624.75;;;3.53;55.19
19795;BME280;10057;59.402;17.866;2023-04-04T09:34:16;102612.50;;;3.96;55.40
19795;BME280;10057;59.402;17.866;2023-04-04T09:36:44;102622.00;;;4.35;55.18
19795;BME280;10057;59.402;17.866;2023-04-04T09:39:12;102622.28;;;4.50;54.53
19795;BME280;10057;59.402;17.866;2023-04-04T09:41:43;102613.50;;;4.49;54.11
19795;BME280;10057;59.402;17.866;2023-04-04T09:44:11;102612.38;;;4.35;53.16
19795;BME280;10057;59.402;17.866;2023-04-04T09:46:38;102612.97;;;4.20;53.29
19795;BME280;10057;59.402;17.866;2023-04-04T09:49:09;102623.47;;;4.20;53.61
19795;BME280;10057;59.402;17.866;2023-04-04T09:51:39;102612.19;;;4.26;53.39
19795;BME280;10057;59.402;17.866;2023-04-04T09:54:10;102610.63;;;4.36;53.40
19795;BME280;10057;59.402;17.866;2023-04-04T09:56:55;102620.50;;;4.49;52.58
19795;BME280;10057;59.402;17.866;2023-04-04T09:59:22;102617.06;;;4.53;52.43
19795;BME280;10057;59.402;17.866;2023-04-04T10:01:50;102606.56;;;4.53;52.56
19795;BME280;10057;59.402;17.866;2023-04-04T10:04:19;102610.13;;;4.55;51.81
19795;BME280;10057;59.402;17.866;2023-04-04T10:06:45;102609.75;;;4.37;51.44
19795;BME280;10057;59.402;17.866;2023-04-04T10:09:14;102606.94;;;4.26;51.86
19795;BME280;10057;59.402;17.866;2023-04-04T10:11:41;102609.63;;;4.27;51.36
19795;BME280;10057;59.402;17.866;2023-04-04T10:14:08;102606.94;;;4.24;51.31
19795;BME280;10057;59.402;17.866;2023-04-04T10:16:35;102594.56;;;4.19;51.24
19795;BME280;10057;59.402;17.866;2023-04-04T10:19:04;102598.19;;;4.25;51.22
19795;BME280;10057;59.402;17.866;2023-04-04T10:21:33;102606.38;;;4.44;50.93
19795;BME280;10057;59.402;17.866;2023-04-04T10:24:02;102606.66;;;4.59;51.24
19795;BME280;10057;59.402;17.866;2023-04-04T10:26:34;102605.25;;;4.80;50.88
19795;BME280;10057;59.402;17.866;2023-04-04T10:29:02;102609.84;;;4.93;50.70
19795;BME280;10057;59.402;17.866;2023-04-04T10:31:32;102607.28;;;4.97;50.44
19795;BME280;10057;59.402;17.866;2023-04-04T10:34:16;102598.63;;;5.05;50.74
19795;BME280;10057;59.402;17.866;2023-04-04T10:36:51;102602.28;;;5.14;50.22
19795;BME280;10057;59.402;17.866;2023-04-04T10:39:25;102594.53;;;5.23;49.84
19795;BME280;10057;59.402;17.866;2023-04-04T10:41:54;102590.25;;;5.32;49.66
19795;BME280;10057;59.402;17.866;2023-04-04T10:44:28;102590.25;;;5.32;49.05
19795;BME280;10057;59.402;17.866;2023-04-04T10:46:57;102590.28;;;5.35;49.67
19795;BME280;10057;59.402;17.866;2023-04-04T10:49:26;102584.25;;;5.43;48.78
19795;BME280;10057;59.402;17.866;2023-04-04T10:51:55;102579.06;;;5.48;49.21
19795;BME280;10057;59.402;17.866;2023-04-04T10:54:24;102580.00;;;5.53;48.60
19795;BME280;10057;59.402;17.866;2023-04-04T10:56:52;102580.03;;;5.56;48.57
19795;BME280;10057;59.402;17.866;2023-04-04T10:59:23;102571.31;;;5.60;48.45
19795;BME280;10057;59.402;17.866;2023-04-04T11:01:57;102571.34;;;5.63;48.45
19795;BME280;10057;59.402;17.866;2023-04-04T11:04:37;102575.72;;;5.61;48.44
19795;BME280;10057;59.402;17.866;2023-04-04T11:07:12;102569.63;;;5.65;48.53
19795;BME280;10057;59.402;17.866;2023-04-04T11:09:49;102576.78;;;5.76;48.09
19795;BME280;10057;59.402;17.866;2023-04-04T11:12:29;102574.22;;;5.82;47.70
19795;BME280;10057;59.402;17.866;2023-04-04T11:20:16;102559.38;;;5.90;47.43
19795;BME280;10057;59.402;17.866;2023-04-04T11:22:43;102564.75;;;5.98;47.89
19795;BME280;10057;59.402;17.866;2023-04-04T11:27:54;102558.69;;;6.03;47.12
19795;BME280;10057;59.402;17.866;2023-04-04T11:30:22;102554.28;;;6.04;47.21
19795;BME280;10057;59.402;17.866;2023-04-04T11:32:49;102549.00;;;6.04;46.78
19795;BME280;10057;59.402;17.866;2023-04-04T11:35:32;102556.06;;;6.06;46.63
19795;BME280;10057;59.402;17.866;2023-04-04T11:37:59;102552.59;;;6.12;46.68
19795;BME280;10057;59.402;17.866;2023-04-04T11:40:38;102559.75;;;6.24;46.59
19795;BME280;10057;59.402;17.866;2023-04-04T11:43:10;102546.56;;;6.25;46.36
19795;BME280;10057;59.402;17.866;2023-04-04T11:45:44;102549.22;;;6.24;46.53
19795;BME280;10057;59.402;17.866;2023-04-04T11:48:13;102547.44;;;6.23;46.21
19795;BME280;10057;59.402;17.866;2023-04-04T11:50:41;102544.81;;;6.23;46.19
19795;BME280;10057;59.402;17.866;2023-04-04T11:53:10;102538.66;;;6.24;46.69
19795;BME280;10057;59.402;17.866;2023-04-04T11:55:41;102538.75;;;6.33;46.10
19795;BME280;10057;59.402;17.866;2023-04-04T11:58:09;102532.63;;;6.38;46.38
19795;BME280;10057;59.402;17.866;2023-04-04T12:00:39;102535.38;;;6.52;46.42
19795;BME280;10057;59.402;17.866;2023-04-04T12:03:10;102528.38;;;6.56;45.87
19795;BME280;10057;59.402;17.866;2023-04-04T12:05:39;102529.25;;;6.56;45.56
19795;BME280;10057;59.402;17.866;2023-04-04T12:08:09;102524.91;;;6.57;45.98
19795;BME280;10057;59.402;17.866;2023-04-04T12:10:38;102522.22;;;6.55;45.54
19795;BME280;10057;59.402;17.866;2023-04-04T12:13:05;102518.78;;;6.64;46.18
19795;BME280;10057;59.402;17.866;2023-04-04T12:15:34;102515.38;;;6.79;45.69
19795;BME280;10057;59.402;17.866;2023-04-04T12:18:07;102513.66;;;6.85;45.67
19795;BME280;10057;59.402;17.866;2023-04-04T12:20:38;102514.56;;;6.92;45.68
19795;BME280;10057;59.402;17.866;2023-04-04T12:23:06;102508.44;;;6.95;45.45
19795;BME280;10057;59.402;17.866;2023-04-04T12:25:33;102509.28;;;6.92;45.33
19795;BME280;10057;59.402;17.866;2023-04-04T12:28:04;102516.34;;;6.95;45.13
19795;BME280;10057;59.402;17.866;2023-04-04T12:30:33;102506.66;;;6.94;45.09
19795;BME280;10057;59.402;17.866;2023-04-04T12:33:00;102514.59;;;6.95;45.42
19795;BME280;10057;59.402;17.866;2023-04-04T12:35:28;102511.06;;;6.96;44.71
19795;BME280;10057;59.402;17.866;2023-04-04T12:38:01;102509.28;;;6.92;44.70
19795;BME280;10057;59.402;17.866;2023-04-04T12:40:32;102507.50;;;6.89;45.14
19795;BME280;10057;59.402;17.866;2023-04-04T12:43:04;102508.38;;;6.84;44.48
19795;BME280;10057;59.402;17.866;2023-04-04T12:45:31;102512.75;;;6.82;45.10
19795;BME280;10057;59.402;17.866;2023-04-04T12:47:58;102501.31;;;6.78;44.72
19795;BME280;10057;59.402;17.866;2023-04-04T12:50:27;102503.00;;;6.73;44.86
19795;BME280;10057;59.402;17.866;2023-04-04T12:52:54;102501.22;;;6.69;44.61
19795;BME280;10057;59.402;17.866;2023-04-04T12:55:45;102504.69;;;6.62;45.01
19795;BME280;10057;59.402;17.866;2023-04-04T12:58:18;102500.28;;;6.58;44.58
19795;BME280;10057;59.402;17.866;2023-04-04T13:00:45;102499.34;;;6.53;44.87